EYVI/VNO METAR and TAF weather

Enter ICAO airport designator
Station Type Date Time Source
EYVI METAR 2021/09/24 03:20 UTC NOAA

EYVI 240320Z 26011KT 9999 OVC009 08/07 Q0989 NOSIG


Station Type Date Time Source
EYVI Decoded METAR 2021/09/24 03:20 UTC NOAA

Vilnius, Lithuania (EYVI) 54-38N 025-06E 156M
Sep 23, 2021 - 11:20 PM EDT / 2021.09.24 0320 UTC
Wind: from the W (260 degrees) at 13 MPH (11 KT):0
Visibility: greater than 7 mile(s):0
Sky conditions: overcast
Temperature: 46 F (8 C)
Dew Point: 44 F (7 C)
Relative Humidity: 93%
Pressure (altimeter): 29.21 in. Hg (0989 hPa)
ob: EYVI 240320Z 26011KT 9999 OVC009 08/07 Q0989 NOSIG
cycle: 3

Station Type Date Time Source
EYVI TAF 2021/09/23 18:30 UTC NOAA

TAF EYVI 231700Z 2318/2418 20014G26KT 5000 RA OVC005
TEMPO 2318/2324 3000 SHRA BKN002 BKN010CB
FM240000 26014KT OVC010
TEMPO 2400/2406 3000 SHRA BKN005 BKN015CB
FM240600 32016G28KT
TEMPO 2406/2409 3000 SHRA BKN005 BKN015CB
BECMG 2409/2410 8000 NSW BKN020
TEMPO 2410/2418 5000 SHRA SCT005 BKN015CB

Example: see airport list